sensor_id;sensor_type;location;lat;lon;timestamp;temperature;humidity
3756;DHT22;1893;52.526;13.360;2022-08-01T00:00:12;21.60;56.10
3756;DHT22;1893;52.526;13.360;2022-08-01T00:02:39;21.50;99.90
3756;DHT22;1893;52.526;13.360;2022-08-01T00:05:05;21.50;99.90
3756;DHT22;1893;52.526;13.360;2022-08-01T00:07:32;21.50;99.90
3756;DHT22;1893;52.526;13.360;2022-08-01T00:09:58;21.40;1.00
3756;DHT22;1893;52.526;13.360;2022-08-01T00:12:23;21.40;1.00
3756;DHT22;1893;52.526;13.360;2022-08-01T00:14:49;21.30;1.00
3756;DHT22;1893;52.526;13.360;2022-08-01T00:17:14;21.40;42.60
3756;DHT22;1893;52.526;13.360;2022-08-01T00:19:40;21.30;1.00
3756;DHT22;1893;52.526;13.360;2022-08-01T00:22:06;21.30;1.00
3756;DHT22;1893;52.526;13.360;2022-08-01T00:24:32;21.30;1.00
3756;DHT22;1893;52.526;13.360;2022-08-01T00:26:57;21.30;99.90
3756;DHT22;1893;52.526;13.360;2022-08-01T00:29:23;21.20;1.00
3756;DHT22;1893;52.526;13.360;2022-08-01T00:31:48;21.20;1.00
3756;DHT22;1893;52.526;13.360;2022-08-01T00:34:14;21.10;99.90
3756;DHT22;1893;52.526;13.360;2022-08-01T00:36:39;21.10;1.00
3756;DHT22;1893;52.526;13.360;2022-08-01T00:39:05;21.10;1.00
3756;DHT22;1893;52.526;13.360;2022-08-01T00:41:31;21.10;1.00
3756;DHT22;1893;52.526;13.360;2022-08-01T00:43:56;21.00;1.00
3756;DHT22;1893;52.526;13.360;2022-08-01T00:46:22;21.00;1.00
3756;DHT22;1893;52.526;13.360;2022-08-01T00:48:47;21.00;99.90
3756;DHT22;1893;52.526;13.360;2022-08-01T00:51:13;20.90;1.00
3756;DHT22;1893;52.526;13.360;2022-08-01T00:53:39;20.90;1.00
3756;DHT22;1893;52.526;13.360;2022-08-01T00:56:06;20.80;1.00
3756;DHT22;1893;52.526;13.360;2022-08-01T00:58:32;20.70;1.00
3756;DHT22;1893;52.526;13.360;2022-08-01T01:00:59;20.70;1.00
3756;DHT22;1893;52.526;13.360;2022-08-01T01:03:25;20.70;1.00
3756;DHT22;1893;52.526;13.360;2022-08-01T01:06:13;20.70;1.00
3756;DHT22;1893;52.526;13.360;2022-08-01T01:08:57;20.60;1.00
3756;DHT22;1893;52.526;13.360;2022-08-01T01:11:32;20.60;1.00
3756;DHT22;1893;52.526;13.360;2022-08-01T01:14:05;20.60;1.00
3756;DHT22;1893;52.526;13.360;2022-08-01T01:16:37;20.50;1.00
3756;DHT22;1893;52.526;13.360;2022-08-01T01:19:10;20.60;1.00
3756;DHT22;1893;52.526;13.360;2022-08-01T01:22:10;20.60;1.00
3756;DHT22;1893;52.526;13.360;2022-08-01T01:27:36;20.50;1.00
3756;DHT22;1893;52.526;13.360;2022-08-01T01:30:04;20.50;1.00
3756;DHT22;1893;52.526;13.360;2022-08-01T01:32:44;20.50;17.20
3756;DHT22;1893;52.526;13.360;2022-08-01T01:35:20;20.50;1.00
3756;DHT22;1893;52.526;13.360;2022-08-01T01:37:47;20.50;1.00
3756;DHT22;1893;52.526;13.360;2022-08-01T01:40:15;20.50;1.00
3756;DHT22;1893;52.526;13.360;2022-08-01T01:42:43;20.40;1.00
3756;DHT22;1893;52.526;13.360;2022-08-01T01:45:09;20.40;1.00
3756;DHT22;1893;52.526;13.360;2022-08-01T01:47:36;20.50;1.00
3756;DHT22;1893;52.526;13.360;2022-08-01T01:50:03;20.50;1.00
3756;DHT22;1893;52.526;13.360;2022-08-01T01:52:31;20.40;1.00
3756;DHT22;1893;52.526;13.360;2022-08-01T01:54:58;20.40;1.00
3756;DHT22;1893;52.526;13.360;2022-08-01T01:57:25;20.40;1.00
3756;DHT22;1893;52.526;13.360;2022-08-01T01:59:53;20.40;1.00
3756;DHT22;1893;52.526;13.360;2022-08-01T02:02:22;20.30;1.00
3756;DHT22;1893;52.526;13.360;2022-08-01T02:04:48;20.30;1.60
3756;DHT22;1893;52.526;13.360;2022-08-01T02:07:21;20.30;17.40
3756;DHT22;1893;52.526;13.360;2022-08-01T02:09:48;20.30;21.80
3756;DHT22;1893;52.526;13.360;2022-08-01T02:12:16;20.20;45.30
3756;DHT22;1893;52.526;13.360;2022-08-01T02:14:42;20.20;40.70
3756;DHT22;1893;52.526;13.360;2022-08-01T02:17:12;20.30;50.80
3756;DHT22;1893;52.526;13.360;2022-08-01T02:19:38;20.20;96.90
3756;DHT22;1893;52.526;13.360;2022-08-01T02:22:27;20.10;93.90
3756;DHT22;1893;52.526;13.360;2022-08-01T02:25:06;20.10;99.90
3756;DHT22;1893;52.526;13.360;2022-08-01T02:27:43;20.10;99.90
3756;DHT22;1893;52.526;13.360;2022-08-01T02:30:12;20.10;99.90
3756;DHT22;1893;52.526;13.360;2022-08-01T02:32:48;20.10;99.90
3756;DHT22;1893;52.526;13.360;2022-08-01T02:35:24;20.00;99.90
3756;DHT22;1893;52.526;13.360;2022-08-01T02:37:52;20.00;99.90
3756;DHT22;1893;52.526;13.360;2022-08-01T02:40:18;19.90;99.90
3756;DHT22;1893;52.526;13.360;2022-08-01T02:42:47;19.90;99.90
3756;DHT22;1893;52.526;13.360;2022-08-01T02:45:14;19.90;99.90
3756;DHT22;1893;52.526;13.360;2022-08-01T02:47:42;19.90;99.90
3756;DHT22;1893;52.526;13.360;2022-08-01T02:50:10;19.90;99.90
3756;DHT22;1893;52.526;13.360;2022-08-01T02:52:38;19.90;99.90
3756;DHT22;1893;52.526;13.360;2022-08-01T02:55:06;19.90;99.90
3756;DHT22;1893;52.526;13.360;2022-08-01T02:57:34;19.80;99.90
3756;DHT22;1893;52.526;13.360;2022-08-01T03:00:01;19.80;99.90
3756;DHT22;1893;52.526;13.360;2022-08-01T03:02:27;19.80;99.90
3756;DHT22;1893;52.526;13.360;2022-08-01T03:04:55;19.70;99.90
3756;DHT22;1893;52.526;13.360;2022-08-01T03:07:21;19.80;99.90
3756;DHT22;1893;52.526;13.360;2022-08-01T03:09:49;19.80;99.90
3756;DHT22;1893;52.526;13.360;2022-08-01T03:12:21;19.80;99.90
3756;DHT22;1893;52.526;13.360;2022-08-01T03:14:51;19.80;99.90
3756;DHT22;1893;52.526;13.360;2022-08-01T03:17:19;19.80;99.90
3756;DHT22;1893;52.526;13.360;2022-08-01T03:19:46;19.80;99.90
3756;DHT22;1893;52.526;13.360;2022-08-01T03:22:13;19.80;99.90
3756;DHT22;1893;52.526;13.360;2022-08-01T03:24:41;19.80;99.90
3756;DHT22;1893;52.526;13.360;2022-08-01T03:27:08;19.70;99.90
3756;DHT22;1893;52.526;13.360;2022-08-01T03:29:34;19.80;99.90
3756;DHT22;1893;52.526;13.360;2022-08-01T03:32:02;19.90;99.90
3756;DHT22;1893;52.526;13.360;2022-08-01T03:34:29;19.90;99.90
3756;DHT22;1893;52.526;13.360;2022-08-01T03:39:33;20.00;99.90
3756;DHT22;1893;52.526;13.360;2022-08-01T03:42:07;19.90;99.90
3756;DHT22;1893;52.526;13.360;2022-08-01T03:44:35;19.90;99.90
3756;DHT22;1893;52.526;13.360;2022-08-01T03:47:06;20.00;99.90
3756;DHT22;1893;52.526;13.360;2022-08-01T03:49:34;20.00;99.90
3756;DHT22;1893;52.526;13.360;2022-08-01T03:52:04;20.00;99.90
3756;DHT22;1893;52.526;13.360;2022-08-01T03:54:35;20.00;99.90
3756;DHT22;1893;52.526;13.360;2022-08-01T03:57:02;19.90;99.90
3756;DHT22;1893;52.526;13.360;2022-08-01T03:59:29;19.90;99.90
3756;DHT22;1893;52.526;13.360;2022-08-01T04:01:55;19.90;99.90
3756;DHT22;1893;52.526;13.360;2022-08-01T04:04:21;19.90;99.90
3756;DHT22;1893;52.526;13.360;2022-08-01T04:06:47;20.00;99.90
3756;DHT22;1893;52.526;13.360;2022-08-01T04:09:16;19.90;99.90
3756;DHT22;1893;52.526;13.360;2022-08-01T04:11:41;19.90;99.90
3756;DHT22;1893;52.526;13.360;2022-08-01T04:14:07;19.90;99.90
3756;DHT22;1893;52.526;13.360;2022-08-01T04:16:33;19.90;99.90
3756;DHT22;1893;52.526;13.360;2022-08-01T04:19:00;19.90;99.90
3756;DHT22;1893;52.526;13.360;2022-08-01T04:21:26;20.00;99.90
3756;DHT22;1893;52.526;13.360;2022-08-01T04:23:58;20.00;99.90
3756;DHT22;1893;52.526;13.360;2022-08-01T04:26:25;20.00;99.90
3756;DHT22;1893;52.526;13.360;2022-08-01T04:28:52;19.90;99.90
3756;DHT22;1893;52.526;13.360;2022-08-01T04:31:20;20.00;99.90
3756;DHT22;1893;52.526;13.360;2022-08-01T04:33:49;20.00;99.90
3756;DHT22;1893;52.526;13.360;2022-08-01T04:36:18;20.00;99.90
3756;DHT22;1893;52.526;13.360;2022-08-01T04:38:45;20.00;99.90
3756;DHT22;1893;52.526;13.360;2022-08-01T04:41:13;20.10;99.90
3756;DHT22;1893;52.526;13.360;2022-08-01T04:43:39;20.00;99.90
3756;DHT22;1893;52.526;13.360;2022-08-01T04:46:07;20.00;99.90
3756;DHT22;1893;52.526;13.360;2022-08-01T04:48:36;19.90;99.90
3756;DHT22;1893;52.526;13.360;2022-08-01T04:51:03;19.90;99.90
3756;DHT22;1893;52.526;13.360;2022-08-01T04:53:29;19.90;99.90
3756;DHT22;1893;52.526;13.360;2022-08-01T04:55:58;19.90;99.90
3756;DHT22;1893;52.526;13.360;2022-08-01T04:58:23;19.80;99.90
3756;DHT22;1893;52.526;13.360;2022-08-01T05:00:49;19.70;99.90
3756;DHT22;1893;52.526;13.360;2022-08-01T05:03:15;19.80;99.90
3756;DHT22;1893;52.526;13.360;2022-08-01T05:05:40;19.80;99.90
3756;DHT22;1893;52.526;13.360;2022-08-01T05:08:06;19.80;99.90
3756;DHT22;1893;52.526;13.360;2022-08-01T05:10:32;19.70;99.90
3756;DHT22;1893;52.526;13.360;2022-08-01T05:12:57;19.80;99.90
3756;DHT22;1893;52.526;13.360;2022-08-01T05:15:23;19.70;99.90
3756;DHT22;1893;52.526;13.360;2022-08-01T05:17:49;19.80;99.90
3756;DHT22;1893;52.526;13.360;2022-08-01T05:20:14;19.80;99.90
3756;DHT22;1893;52.526;13.360;2022-08-01T05:22:40;19.90;99.90
3756;DHT22;1893;52.526;13.360;2022-08-01T05:25:06;19.90;99.90
3756;DHT22;1893;52.526;13.360;2022-08-01T05:27:32;19.90;99.90
3756;DHT22;1893;52.526;13.360;2022-08-01T05:29:57;19.80;99.90
3756;DHT22;1893;52.526;13.360;2022-08-01T05:32:23;19.70;99.90
3756;DHT22;1893;52.526;13.360;2022-08-01T05:34:49;19.80;99.90
3756;DHT22;1893;52.526;13.360;2022-08-01T05:37:14;19.90;99.90
3756;DHT22;1893;52.526;13.360;2022-08-01T05:39:40;19.90;99.90
3756;DHT22;1893;52.526;13.360;2022-08-01T05:42:06;20.00;99.90
3756;DHT22;1893;52.526;13.360;2022-08-01T05:44:32;20.10;99.90
3756;DHT22;1893;52.526;13.360;2022-08-01T05:46:57;20.10;99.90
3756;DHT22;1893;52.526;13.360;2022-08-01T05:49:23;20.20;99.90
3756;DHT22;1893;52.526;13.360;2022-08-01T05:51:48;20.30;99.90
3756;DHT22;1893;52.526;13.360;2022-08-01T05:54:14;20.20;99.90
3756;DHT22;1893;52.526;13.360;2022-08-01T05:56:40;20.10;99.90
3756;DHT22;1893;52.526;13.360;2022-08-01T05:59:05;20.20;99.90
3756;DHT22;1893;52.526;13.360;2022-08-01T06:01:31;20.30;99.90
3756;DHT22;1893;52.526;13.360;2022-08-01T06:03:56;20.30;99.90
3756;DHT22;1893;52.526;13.360;2022-08-01T06:06:22;20.30;99.90
3756;DHT22;1893;52.526;13.360;2022-08-01T06:08:48;20.20;99.90
3756;DHT22;1893;52.526;13.360;2022-08-01T06:11:14;20.20;99.90
3756;DHT22;1893;52.526;13.360;2022-08-01T06:13:40;20.30;99.90
3756;DHT22;1893;52.526;13.360;2022-08-01T06:16:06;20.20;99.90
3756;DHT22;1893;52.526;13.360;2022-08-01T06:18:32;20.20;99.90
3756;DHT22;1893;52.526;13.360;2022-08-01T06:20:57;20.20;99.90
3756;DHT22;1893;52.526;13.360;2022-08-01T06:23:23;20.20;99.90
3756;DHT22;1893;52.526;13.360;2022-08-01T06:25:52;20.30;99.90
3756;DHT22;1893;52.526;13.360;2022-08-01T06:28:18;20.20;99.90
3756;DHT22;1893;52.526;13.360;2022-08-01T06:30:43;20.40;99.90
3756;DHT22;1893;52.526;13.360;2022-08-01T06:33:09;20.30;99.90
3756;DHT22;1893;52.526;13.360;2022-08-01T06:35:34;20.40;99.90
3756;DHT22;1893;52.526;13.360;2022-08-01T06:38:00;20.50;99.90
3756;DHT22;1893;52.526;13.360;2022-08-01T06:40:26;20.50;99.90
3756;DHT22;1893;52.526;13.360;2022-08-01T06:42:52;20.60;99.90
3756;DHT22;1893;52.526;13.360;2022-08-01T06:45:17;20.60;99.90
3756;DHT22;1893;52.526;13.360;2022-08-01T06:47:44;20.60;99.90
3756;DHT22;1893;52.526;13.360;2022-08-01T06:50:11;20.70;99.90
3756;DHT22;1893;52.526;13.360;2022-08-01T06:52:37;20.80;99.90
3756;DHT22;1893;52.526;13.360;2022-08-01T06:55:04;21.00;99.90
3756;DHT22;1893;52.526;13.360;2022-08-01T06:57:30;20.90;99.90
3756;DHT22;1893;52.526;13.360;2022-08-01T06:59:56;20.90;99.90
3756;DHT22;1893;52.526;13.360;2022-08-01T07:02:22;20.80;99.90
3756;DHT22;1893;52.526;13.360;2022-08-01T07:04:48;20.80;99.90
3756;DHT22;1893;52.526;13.360;2022-08-01T07:07:13;20.70;99.90
3756;DHT22;1893;52.526;13.360;2022-08-01T07:09:39;20.60;99.90
3756;DHT22;1893;52.526;13.360;2022-08-01T07:12:06;20.60;99.90
3756;DHT22;1893;52.526;13.360;2022-08-01T07:14:32;20.60;99.90
3756;DHT22;1893;52.526;13.360;2022-08-01T07:16:57;20.70;99.90
3756;DHT22;1893;52.526;13.360;2022-08-01T07:19:23;20.70;99.90
3756;DHT22;1893;52.526;13.360;2022-08-01T07:21:49;20.70;99.90
3756;DHT22;1893;52.526;13.360;2022-08-01T07:24:14;20.80;99.90
3756;DHT22;1893;52.526;13.360;2022-08-01T07:26:42;20.90;99.90
3756;DHT22;1893;52.526;13.360;2022-08-01T07:29:08;20.80;99.90
3756;DHT22;1893;52.526;13.360;2022-08-01T07:31:33;20.80;99.90
3756;DHT22;1893;52.526;13.360;2022-08-01T07:33:59;20.80;99.90
3756;DHT22;1893;52.526;13.360;2022-08-01T07:36:24;20.70;99.90
3756;DHT22;1893;52.526;13.360;2022-08-01T07:38:50;20.70;99.90
3756;DHT22;1893;52.526;13.360;2022-08-01T07:41:16;20.70;99.90
3756;DHT22;1893;52.526;13.360;2022-08-01T07:43:41;20.80;99.90
3756;DHT22;1893;52.526;13.360;2022-08-01T07:46:07;20.90;99.90
3756;DHT22;1893;52.526;13.360;2022-08-01T07:48:33;21.00;99.90
3756;DHT22;1893;52.526;13.360;2022-08-01T07:50:59;21.10;99.90
3756;DHT22;1893;52.526;13.360;2022-08-01T07:53:25;21.00;99.90
3756;DHT22;1893;52.526;13.360;2022-08-01T07:55:51;21.00;99.90
3756;DHT22;1893;52.526;13.360;2022-08-01T07:58:16;21.10;99.90
3756;DHT22;1893;52.526;13.360;2022-08-01T08:00:42;20.80;99.90
3756;DHT22;1893;52.526;13.360;2022-08-01T08:03:08;20.80;99.90
3756;DHT22;1893;52.526;13.360;2022-08-01T08:05:34;20.70;99.90
3756;DHT22;1893;52.526;13.360;2022-08-01T08:08:05;20.50;99.90
3756;DHT22;1893;52.526;13.360;2022-08-01T08:10:31;20.50;99.90
3756;DHT22;1893;52.526;13.360;2022-08-01T08:12:57;20.50;99.90
3756;DHT22;1893;52.526;13.360;2022-08-01T08:15:22;20.40;99.90
3756;DHT22;1893;52.526;13.360;2022-08-01T08:17:48;20.40;99.90
3756;DHT22;1893;52.526;13.360;2022-08-01T08:20:14;20.50;99.90
3756;DHT22;1893;52.526;13.360;2022-08-01T08:22:39;20.60;99.90
3756;DHT22;1893;52.526;13.360;2022-08-01T08:25:06;20.80;99.90
3756;DHT22;1893;52.526;13.360;2022-08-01T08:27:31;20.80;99.90
3756;DHT22;1893;52.526;13.360;2022-08-01T08:29:57;20.90;99.90
3756;DHT22;1893;52.526;13.360;2022-08-01T08:32:23;21.00;99.90
3756;DHT22;1893;52.526;13.360;2022-08-01T08:34:48;20.90;99.90
3756;DHT22;1893;52.526;13.360;2022-08-01T08:37:14;21.00;99.90
3756;DHT22;1893;52.526;13.360;2022-08-01T08:39:40;21.10;99.90
3756;DHT22;1893;52.526;13.360;2022-08-01T08:42:07;21.20;99.90
3756;DHT22;1893;52.526;13.360;2022-08-01T08:44:33;21.20;99.90
3756;DHT22;1893;52.526;13.360;2022-08-01T08:47:01;21.20;99.90
3756;DHT22;1893;52.526;13.360;2022-08-01T08:49:30;21.20;99.90
3756;DHT22;1893;52.526;13.360;2022-08-01T08:51:59;21.10;99.90
3756;DHT22;1893;52.526;13.360;2022-08-01T08:54:26;21.00;99.90
3756;DHT22;1893;52.526;13.360;2022-08-01T08:56:54;21.10;99.90
3756;DHT22;1893;52.526;13.360;2022-08-01T08:59:20;21.20;99.90
3756;DHT22;1893;52.526;13.360;2022-08-01T09:01:46;21.40;99.90
3756;DHT22;1893;52.526;13.360;2022-08-01T09:04:12;21.50;97.30
3756;DHT22;1893;52.526;13.360;2022-08-01T09:06:39;21.70;26.10
3756;DHT22;1893;52.526;13.360;2022-08-01T09:09:06;22.00;1.00
3756;DHT22;1893;52.526;13.360;2022-08-01T09:11:32;22.20;1.00
3756;DHT22;1893;52.526;13.360;2022-08-01T09:14:16;22.00;1.00
3756;DHT22;1893;52.526;13.360;2022-08-01T09:17:05;21.80;1.00
3756;DHT22;1893;52.526;13.360;2022-08-01T09:22:04;21.60;1.00
3756;DHT22;1893;52.526;13.360;2022-08-01T09:24:30;21.60;11.60
3756;DHT22;1893;52.526;13.360;2022-08-01T09:26:58;21.70;11.80
3756;DHT22;1893;52.526;13.360;2022-08-01T09:29:30;21.90;1.00
3756;DHT22;1893;52.526;13.360;2022-08-01T09:32:05;22.00;1.00
3756;DHT22;1893;52.526;13.360;2022-08-01T09:34:31;21.90;1.00
3756;DHT22;1893;52.526;13.360;2022-08-01T09:36:59;21.90;1.00
3756;DHT22;1893;52.526;13.360;2022-08-01T09:39:30;21.90;1.00
3756;DHT22;1893;52.526;13.360;2022-08-01T09:41:58;21.80;1.00
3756;DHT22;1893;52.526;13.360;2022-08-01T09:44:43;21.70;20.00
3756;DHT22;1893;52.526;13.360;2022-08-01T09:47:09;21.70;25.60
3756;DHT22;1893;52.526;13.360;2022-08-01T09:49:36;21.70;33.60
3756;DHT22;1893;52.526;13.360;2022-08-01T09:52:19;21.70;77.90
3756;DHT22;1893;52.526;13.360;2022-08-01T09:54:57;21.60;77.00
3756;DHT22;1893;52.526;13.360;2022-08-01T09:57:22;21.50;99.90
3756;DHT22;1893;52.526;13.360;2022-08-01T09:59:51;21.40;99.90
3756;DHT22;1893;52.526;13.360;2022-08-01T10:02:36;21.50;99.90
3756;DHT22;1893;52.526;13.360;2022-08-01T10:05:07;21.50;99.90
3756;DHT22;1893;52.526;13.360;2022-08-01T10:07:34;21.60;99.90
3756;DHT22;1893;52.526;13.360;2022-08-01T10:10:10;21.70;86.70
3756;DHT22;1893;52.526;13.360;2022-08-01T10:12:37;21.80;45.20
3756;DHT22;1893;52.526;13.360;2022-08-01T10:15:03;21.80;1.00
3756;DHT22;1893;52.526;13.360;2022-08-01T10:17:30;22.00;1.00
3756;DHT22;1893;52.526;13.360;2022-08-01T10:19:57;22.00;1.00
3756;DHT22;1893;52.526;13.360;2022-08-01T10:22:24;22.00;1.00
3756;DHT22;1893;52.526;13.360;2022-08-01T10:24:53;22.00;1.00
3756;DHT22;1893;52.526;13.360;2022-08-01T10:27:20;22.20;1.00
3756;DHT22;1893;52.526;13.360;2022-08-01T10:29:56;22.10;1.00
3756;DHT22;1893;52.526;13.360;2022-08-01T10:32:23;22.10;1.00
3756;DHT22;1893;52.526;13.360;2022-08-01T10:34:52;22.10;1.00
3756;DHT22;1893;52.526;13.360;2022-08-01T10:37:19;22.10;1.00
3756;DHT22;1893;52.526;13.360;2022-08-01T10:39:44;22.10;1.00
3756;DHT22;1893;52.526;13.360;2022-08-01T10:42:11;22.00;1.00
3756;DHT22;1893;52.526;13.360;2022-08-01T10:44:38;22.00;1.00
3756;DHT22;1893;52.526;13.360;2022-08-01T10:47:10;22.00;1.00
3756;DHT22;1893;52.526;13.360;2022-08-01T10:49:45;22.10;1.00
3756;DHT22;1893;52.526;13.360;2022-08-01T10:52:16;22.00;1.00
3756;DHT22;1893;52.526;13.360;2022-08-01T10:54:42;22.00;1.00
3756;DHT22;1893;52.526;13.360;2022-08-01T10:57:07;21.90;1.00
3756;DHT22;1893;52.526;13.360;2022-08-01T10:59:33;22.00;1.00
3756;DHT22;1893;52.526;13.360;2022-08-01T11:02:05;22.20;1.00
3756;DHT22;1893;52.526;13.360;2022-08-01T11:04:51;22.30;1.00
3756;DHT22;1893;52.526;13.360;2022-08-01T11:07:24;22.40;1.00
3756;DHT22;1893;52.526;13.360;2022-08-01T11:10:53;22.30;1.00
3756;DHT22;1893;52.526;13.360;2022-08-01T11:12:54;22.30;1.00
3756;DHT22;1893;52.526;13.360;2022-08-01T11:15:22;22.60;1.00
3756;DHT22;1893;52.526;13.360;2022-08-01T11:17:51;22.50;1.00
3756;DHT22;1893;52.526;13.360;2022-08-01T11:20:18;22.20;1.00
3756;DHT22;1893;52.526;13.360;2022-08-01T11:33:12;21.10;99.90
3756;DHT22;1893;52.526;13.360;2022-08-01T11:38:36;21.00;99.90
3756;DHT22;1893;52.526;13.360;2022-08-01T11:44:07;20.90;99.90
3756;DHT22;1893;52.526;13.360;2022-08-01T11:55:29;21.70;99.90
3756;DHT22;1893;52.526;13.360;2022-08-01T11:58:05;21.90;99.90
3756;DHT22;1893;52.526;13.360;2022-08-01T12:00:32;22.00;89.40
3756;DHT22;1893;52.526;13.360;2022-08-01T12:03:00;22.20;31.50
3756;DHT22;1893;52.526;13.360;2022-08-01T12:05:27;22.30;4.40
3756;DHT22;1893;52.526;13.360;2022-08-01T12:07:54;22.40;18.90
3756;DHT22;1893;52.526;13.360;2022-08-01T12:10:26;22.90;1.00
3756;DHT22;1893;52.526;13.360;2022-08-01T12:12:53;23.20;1.00
3756;DHT22;1893;52.526;13.360;2022-08-01T12:15:21;23.50;1.00
3756;DHT22;1893;52.526;13.360;2022-08-01T12:17:49;23.60;1.00
3756;DHT22;1893;52.526;13.360;2022-08-01T12:20:19;23.90;99.90
3756;DHT22;1893;52.526;13.360;2022-08-01T12:22:44;24.10;1.00
3756;DHT22;1893;52.526;13.360;2022-08-01T12:25:16;24.40;99.90
3756;DHT22;1893;52.526;13.360;2022-08-01T12:27:43;24.40;1.00
3756;DHT22;1893;52.526;13.360;2022-08-01T12:30:14;24.30;99.90
3756;DHT22;1893;52.526;13.360;2022-08-01T12:32:42;24.30;99.90
3756;DHT22;1893;52.526;13.360;2022-08-01T12:35:14;24.30;1.00
3756;DHT22;1893;52.526;13.360;2022-08-01T12:37:43;24.10;1.00
3756;DHT22;1893;52.526;13.360;2022-08-01T12:40:31;24.10;99.90
3756;DHT22;1893;52.526;13.360;2022-08-01T12:42:59;24.20;99.90
3756;DHT22;1893;52.526;13.360;2022-08-01T12:47:53;24.70;99.90
3756;DHT22;1893;52.526;13.360;2022-08-01T12:50:20;24.80;99.90
3756;DHT22;1893;52.526;13.360;2022-08-01T12:52:48;24.50;1.00
3756;DHT22;1893;52.526;13.360;2022-08-01T12:57:47;24.70;99.90
3756;DHT22;1893;52.526;13.360;2022-08-01T13:02:41;25.10;1.00
3756;DHT22;1893;52.526;13.360;2022-08-01T13:05:08;25.50;99.90
3756;DHT22;1893;52.526;13.360;2022-08-01T13:07:48;25.00;99.90
3756;DHT22;1893;52.526;13.360;2022-08-01T13:10:23;24.40;99.90
3756;DHT22;1893;52.526;13.360;2022-08-01T13:12:54;23.80;99.90
3756;DHT22;1893;52.526;13.360;2022-08-01T13:15:26;23.60;99.90
3756;DHT22;1893;52.526;13.360;2022-08-01T13:17:53;23.40;99.90
3756;DHT22;1893;52.526;13.360;2022-08-01T13:20:32;23.40;1.00
3756;DHT22;1893;52.526;13.360;2022-08-01T13:23:18;23.40;99.90
3756;DHT22;1893;52.526;13.360;2022-08-01T13:25:53;23.40;99.90
3756;DHT22;1893;52.526;13.360;2022-08-01T13:33:22;23.80;99.90
3756;DHT22;1893;52.526;13.360;2022-08-01T13:35:52;23.90;1.00
3756;DHT22;1893;52.526;13.360;2022-08-01T13:38:18;23.90;99.90
3756;DHT22;1893;52.526;13.360;2022-08-01T13:40:44;23.90;1.00
3756;DHT22;1893;52.526;13.360;2022-08-01T13:43:10;23.60;1.00
3756;DHT22;1893;52.526;13.360;2022-08-01T13:45:35;23.60;35.40
3756;DHT22;1893;52.526;13.360;2022-08-01T13:48:02;23.40;99.90
3756;DHT22;1893;52.526;13.360;2022-08-01T13:50:28;23.20;1.00
3756;DHT22;1893;52.526;13.360;2022-08-01T13:52:53;23.10;1.00
3756;DHT22;1893;52.526;13.360;2022-08-01T13:55:19;23.00;1.00
3756;DHT22;1893;52.526;13.360;2022-08-01T13:57:45;23.10;1.00
3756;DHT22;1893;52.526;13.360;2022-08-01T14:00:10;23.20;1.00
3756;DHT22;1893;52.526;13.360;2022-08-01T14:02:36;23.30;1.00
3756;DHT22;1893;52.526;13.360;2022-08-01T14:05:02;23.50;99.90
3756;DHT22;1893;52.526;13.360;2022-08-01T14:07:27;23.80;99.90
3756;DHT22;1893;52.526;13.360;2022-08-01T14:09:53;24.00;99.90
3756;DHT22;1893;52.526;13.360;2022-08-01T14:12:18;24.10;1.00
3756;DHT22;1893;52.526;13.360;2022-08-01T14:14:44;24.50;1.00
3756;DHT22;1893;52.526;13.360;2022-08-01T14:17:10;24.70;99.90
3756;DHT22;1893;52.526;13.360;2022-08-01T14:19:35;24.80;99.90
3756;DHT22;1893;52.526;13.360;2022-08-01T14:22:01;24.80;1.00
3756;DHT22;1893;52.526;13.360;2022-08-01T14:24:26;24.90;1.00
3756;DHT22;1893;52.526;13.360;2022-08-01T14:26:52;25.00;19.80
3756;DHT22;1893;52.526;13.360;2022-08-01T14:29:18;25.10;1.00
3756;DHT22;1893;52.526;13.360;2022-08-01T14:31:44;25.20;1.00
3756;DHT22;1893;52.526;13.360;2022-08-01T14:34:09;25.10;1.00
3756;DHT22;1893;52.526;13.360;2022-08-01T14:36:35;25.30;1.00
3756;DHT22;1893;52.526;13.360;2022-08-01T14:39:00;25.60;1.00
3756;DHT22;1893;52.526;13.360;2022-08-01T14:41:29;25.30;1.00
3756;DHT22;1893;52.526;13.360;2022-08-01T14:43:54;25.30;1.00
3756;DHT22;1893;52.526;13.360;2022-08-01T14:46:20;25.10;1.00
3756;DHT22;1893;52.526;13.360;2022-08-01T14:48:46;25.00;76.30
3756;DHT22;1893;52.526;13.360;2022-08-01T14:51:11;24.80;99.90
3756;DHT22;1893;52.526;13.360;2022-08-01T14:53:37;24.70;1.00
3756;DHT22;1893;52.526;13.360;2022-08-01T14:56:06;24.40;99.90
3756;DHT22;1893;52.526;13.360;2022-08-01T14:58:32;24.30;1.00
3756;DHT22;1893;52.526;13.360;2022-08-01T15:00:58;24.00;99.90
3756;DHT22;1893;52.526;13.360;2022-08-01T15:03:23;24.00;99.90
3756;DHT22;1893;52.526;13.360;2022-08-01T15:05:49;23.90;99.90
3756;DHT22;1893;52.526;13.360;2022-08-01T15:08:15;23.80;1.00
3756;DHT22;1893;52.526;13.360;2022-08-01T15:10:40;23.80;99.90
3756;DHT22;1893;52.526;13.360;2022-08-01T15:13:06;23.80;99.90
3756;DHT22;1893;52.526;13.360;2022-08-01T15:15:32;23.60;99.90
3756;DHT22;1893;52.526;13.360;2022-08-01T15:17:57;23.60;1.00
3756;DHT22;1893;52.526;13.360;2022-08-01T15:20:23;23.60;1.00
3756;DHT22;1893;52.526;13.360;2022-08-01T15:22:49;23.60;1.00
3756;DHT22;1893;52.526;13.360;2022-08-01T15:25:15;23.60;1.00
3756;DHT22;1893;52.526;13.360;2022-08-01T15:27:41;23.70;1.00
3756;DHT22;1893;52.526;13.360;2022-08-01T15:30:06;23.90;99.90
3756;DHT22;1893;52.526;13.360;2022-08-01T15:32:33;23.90;99.90
3756;DHT22;1893;52.526;13.360;2022-08-01T15:34:58;23.90;1.00
3756;DHT22;1893;52.526;13.360;2022-08-01T15:37:24;23.90;1.00
3756;DHT22;1893;52.526;13.360;2022-08-01T15:39:49;23.80;1.00
3756;DHT22;1893;52.526;13.360;2022-08-01T15:42:16;23.80;1.00
3756;DHT22;1893;52.526;13.360;2022-08-01T15:44:42;23.70;1.00
3756;DHT22;1893;52.526;13.360;2022-08-01T15:47:08;23.70;1.00
3756;DHT22;1893;52.526;13.360;2022-08-01T15:49:35;23.80;99.90
3756;DHT22;1893;52.526;13.360;2022-08-01T15:52:05;23.90;99.90
3756;DHT22;1893;52.526;13.360;2022-08-01T15:54:31;24.10;99.90
3756;DHT22;1893;52.526;13.360;2022-08-01T15:56:57;24.00;99.90
3756;DHT22;1893;52.526;13.360;2022-08-01T15:59:23;24.00;99.90
3756;DHT22;1893;52.526;13.360;2022-08-01T16:01:48;24.00;99.90
3756;DHT22;1893;52.526;13.360;2022-08-01T16:04:15;24.00;99.90
3756;DHT22;1893;52.526;13.360;2022-08-01T16:06:41;23.90;1.00
3756;DHT22;1893;52.526;13.360;2022-08-01T16:09:06;23.90;99.90
3756;DHT22;1893;52.526;13.360;2022-08-01T16:11:32;23.80;99.90
3756;DHT22;1893;52.526;13.360;2022-08-01T16:13:58;23.70;99.90
3756;DHT22;1893;52.526;13.360;2022-08-01T16:16:24;23.70;99.90
3756;DHT22;1893;52.526;13.360;2022-08-01T16:18:50;23.60;99.90
3756;DHT22;1893;52.526;13.360;2022-08-01T16:21:16;23.70;99.90
3756;DHT22;1893;52.526;13.360;2022-08-01T16:23:42;23.80;6.40
3756;DHT22;1893;52.526;13.360;2022-08-01T16:26:08;23.70;73.30
3756;DHT22;1893;52.526;13.360;2022-08-01T16:28:34;23.80;90.00
3756;DHT22;1893;52.526;13.360;2022-08-01T16:30:59;23.70;32.80
3756;DHT22;1893;52.526;13.360;2022-08-01T16:33:25;23.50;5.60
3756;DHT22;1893;52.526;13.360;2022-08-01T16:35:51;23.40;99.90
3756;DHT22;1893;52.526;13.360;2022-08-01T16:38:18;23.40;99.90
3756;DHT22;1893;52.526;13.360;2022-08-01T16:40:44;23.50;99.90